createdAt,value
2018-12-02T00:00:35.276Z,94.80
2018-12-02T00:03:04.959Z,94.80
2018-12-02T00:05:33.383Z,94.80
2018-12-02T00:08:01.843Z,94.90
2018-12-02T00:10:30.248Z,94.90
2018-12-02T00:12:58.662Z,95.00
2018-12-02T00:15:28.203Z,95.10
2018-12-02T00:18:00.472Z,95.10
2018-12-02T00:20:28.897Z,95.10
2018-12-02T00:22:57.301Z,95.10
2018-12-02T00:25:25.816Z,95.00
2018-12-02T00:27:55.666Z,95.00
2018-12-02T00:30:28.183Z,94.90
2018-12-02T00:32:56.722Z,94.90
2018-12-02T00:35:25.309Z,94.90
2018-12-02T00:37:57.133Z,94.80
2018-12-02T00:40:25.602Z,94.80
2018-12-02T00:42:57.983Z,94.70
2018-12-02T00:45:28.582Z,94.70
2018-12-02T00:47:57.051Z,94.70
2018-12-02T00:50:25.509Z,94.60
2018-12-02T00:52:57.940Z,94.50
2018-12-02T00:55:42.903Z,94.40
2018-12-02T00:58:11.325Z,94.40
2018-12-02T01:00:39.753Z,94.40
2018-12-02T01:03:09.236Z,94.50
2018-12-02T01:05:37.651Z,94.60
2018-12-02T01:08:07.129Z,94.70
2018-12-02T01:10:36.029Z,94.80
2018-12-02T01:13:05.536Z,94.90
2018-12-02T01:15:33.956Z,95.20
2018-12-02T01:18:02.386Z,95.30
2018-12-02T01:20:30.788Z,95.30
2018-12-02T01:22:59.198Z,95.40
2018-12-02T01:25:27.610Z,95.40
2018-12-02T01:27:56.035Z,95.60
2018-12-02T01:30:25.040Z,95.70
2018-12-02T01:32:54.406Z,95.80
2018-12-02T01:35:22.908Z,95.90
2018-12-02T01:37:51.511Z,95.90
2018-12-02T01:40:21.229Z,96.10
2018-12-02T01:42:50.414Z,96.10
2018-12-02T01:45:26.587Z,96.10
2018-12-02T01:47:55.821Z,96.10
2018-12-02T01:50:26.175Z,96.20
2018-12-02T01:52:55.586Z,96.30
2018-12-02T01:55:24.033Z,96.20
2018-12-02T01:57:52.578Z,96.00
2018-12-02T02:00:23.929Z,96.40
2018-12-02T02:02:52.862Z,96.40
2018-12-02T02:05:22.305Z,96.70
2018-12-02T02:07:50.829Z,96.30
2018-12-02T02:10:25.197Z,96.50
2018-12-02T02:12:53.786Z,96.50
2018-12-02T02:15:22.381Z,96.40
2018-12-02T02:17:50.888Z,96.40
2018-12-02T02:20:20.358Z,96.40
2018-12-02T02:22:48.829Z,96.40
2018-12-02T02:25:18.357Z,96.40
2018-12-02T02:27:50.219Z,96.70
2018-12-02T02:30:20.768Z,96.30
2018-12-02T02:32:49.302Z,96.40
2018-12-02T02:35:20.845Z,96.30
2018-12-02T02:37:50.435Z,96.30
2018-12-02T02:40:20.812Z,96.30
2018-12-02T02:42:49.366Z,96.20
2018-12-02T02:45:17.850Z,96.20
2018-12-02T02:47:46.768Z,96.20
2018-12-02T02:50:16.223Z,96.20
2018-12-02T02:52:47.696Z,96.20
2018-12-02T02:55:16.121Z,96.10
2018-12-02T02:57:44.621Z,96.10
2018-12-02T03:00:16.206Z,96.10
2018-12-02T03:02:44.624Z,96.10
2018-12-02T03:05:13.882Z,96.10
2018-12-02T03:07:42.342Z,96.10
2018-12-02T03:10:19.026Z,96.20
2018-12-02T03:12:50.387Z,96.30
2018-12-02T03:15:19.551Z,96.30
2018-12-02T03:17:48.010Z,96.30
2018-12-02T03:20:18.274Z,96.30
2018-12-02T03:22:47.779Z,96.30
2018-12-02T03:25:17.582Z,96.30
2018-12-02T03:27:45.983Z,96.20
2018-12-02T03:30:18.453Z,96.30
2018-12-02T03:32:47.003Z,96.40
2018-12-02T03:35:17.405Z,96.50
2018-12-02T03:37:45.863Z,96.60
2018-12-02T03:40:16.314Z,96.50
2018-12-02T03:42:44.711Z,96.70
2018-12-02T03:45:14.563Z,96.70
2018-12-02T03:47:43.026Z,96.80
2018-12-02T03:50:17.466Z,96.80
2018-12-02T03:52:42.313Z,96.90
2018-12-02T03:55:10.868Z,96.90
2018-12-02T03:57:39.348Z,96.90
2018-12-02T04:00:15.685Z,96.80
2018-12-02T04:02:44.261Z,96.80
2018-12-02T04:05:13.834Z,96.70
2018-12-02T04:07:42.307Z,96.60
2018-12-02T04:10:13.751Z,96.50
2018-12-02T04:12:42.269Z,96.40
2018-12-02T04:15:13.866Z,96.50
2018-12-02T04:17:42.863Z,96.50
2018-12-02T04:20:15.245Z,96.50
2018-12-02T04:22:44.255Z,96.50
2018-12-02T04:25:14.898Z,96.60
2018-12-02T04:27:43.337Z,96.50
2018-12-02T04:30:14.670Z,96.50
2018-12-02T04:32:43.362Z,96.50
2018-12-02T04:35:12.971Z,96.60
2018-12-02T04:37:41.418Z,96.70
2018-12-02T04:40:11.689Z,96.70
2018-12-02T04:42:40.145Z,96.70
2018-12-02T04:45:10.695Z,96.60
2018-12-02T04:47:39.184Z,96.60
2018-12-02T04:50:13.107Z,96.60
2018-12-02T04:52:41.576Z,96.70
2018-12-02T04:55:10.725Z,96.70
2018-12-02T04:57:39.436Z,96.60
2018-12-02T05:00:10.587Z,96.50
2018-12-02T05:02:39.084Z,96.60
2018-12-02T05:05:09.351Z,96.70
2018-12-02T05:07:37.948Z,96.90
2018-12-02T05:10:09.747Z,96.70
2018-12-02T05:12:38.499Z,96.80
2018-12-02T05:15:08.700Z,96.90
2018-12-02T05:17:37.106Z,96.80
2018-12-02T05:20:07.931Z,96.70
2018-12-02T05:22:36.341Z,96.50
2018-12-02T05:25:05.251Z,96.40
2018-12-02T05:27:33.679Z,96.40
2018-12-02T05:30:02.135Z,96.30
2018-12-02T05:32:30.800Z,96.30
2018-12-02T05:34:59.546Z,96.40
2018-12-02T05:37:27.974Z,96.40
2018-12-02T05:39:56.358Z,96.50
2018-12-02T05:42:30.147Z,96.50
2018-12-02T05:44:58.596Z,96.60
2018-12-02T05:47:27.051Z,96.50
2018-12-02T05:49:56.051Z,96.50
2018-12-02T05:52:24.493Z,96.50
2018-12-02T05:54:53.011Z,96.40
2018-12-02T05:57:21.603Z,96.40
2018-12-02T05:59:50.240Z,96.30
2018-12-02T06:02:18.901Z,96.20
2018-12-02T06:04:47.323Z,96.20
2018-12-02T06:07:15.815Z,96.10
2018-12-02T06:09:44.337Z,96.00
2018-12-02T06:12:12.752Z,96.00
2018-12-02T06:14:41.241Z,95.90
2018-12-02T06:17:09.669Z,95.90
2018-12-02T06:19:38.204Z,95.90
2018-12-02T06:22:06.910Z,95.80
2018-12-02T06:24:35.335Z,95.80
2018-12-02T06:27:06.528Z,95.70
2018-12-02T06:29:37.080Z,95.70
2018-12-02T06:32:05.872Z,95.60
2018-12-02T06:34:34.278Z,95.50
2018-12-02T06:37:02.693Z,95.60
2018-12-02T06:39:31.124Z,95.50
2018-12-02T06:41:59.537Z,95.50
2018-12-02T06:44:27.949Z,95.50
2018-12-02T06:46:56.346Z,95.50
2018-12-02T06:49:24.769Z,95.30
2018-12-02T06:51:53.192Z,95.30
2018-12-02T06:54:25.962Z,95.20
2018-12-02T06:57:00.453Z,95.20
2018-12-02T06:59:42.072Z,95.20
2018-12-02T07:04:22.184Z,95.20
2018-12-02T07:06:50.631Z,95.00
2018-12-02T07:11:52.660Z,95.30
2018-12-02T07:14:21.061Z,95.10
2018-12-02T07:16:49.446Z,95.10
2018-12-02T07:19:29.309Z,95.10
2018-12-02T07:22:02.396Z,95.00
2018-12-02T07:24:35.188Z,95.00
2018-12-02T07:27:03.732Z,95.00
2018-12-02T07:29:32.967Z,94.80
2018-12-02T07:32:01.417Z,95.00
2018-12-02T07:34:29.828Z,95.00
2018-12-02T07:36:59.908Z,94.90
2018-12-02T07:39:38.074Z,95.00
2018-12-02T07:42:06.506Z,95.00
2018-12-02T07:44:35.095Z,94.90
2018-12-02T07:47:03.522Z,95.40
2018-12-02T07:49:31.983Z,94.90
2018-12-02T07:52:00.391Z,95.00
2018-12-02T07:54:28.792Z,95.00
2018-12-02T07:56:57.211Z,95.10
2018-12-02T07:59:25.623Z,95.00
2018-12-02T08:01:54.068Z,95.00
2018-12-02T08:04:22.507Z,95.10
2018-12-02T08:06:50.920Z,95.20
2018-12-02T08:09:19.386Z,95.30
2018-12-02T08:11:47.809Z,95.30
2018-12-02T08:14:16.330Z,95.40
2018-12-02T08:16:44.725Z,95.20
2018-12-02T08:19:13.135Z,95.20
2018-12-02T08:21:41.551Z,95.30
2018-12-02T08:24:10.050Z,95.40
2018-12-02T08:26:38.464Z,95.50
2018-12-02T08:29:06.922Z,95.50
2018-12-02T08:31:35.395Z,95.50
2018-12-02T08:34:03.870Z,95.30
2018-12-02T08:36:38.788Z,95.30
2018-12-02T08:39:10.120Z,95.30
2018-12-02T08:41:41.068Z,95.20
2018-12-02T08:44:09.634Z,95.10
2018-12-02T08:46:38.081Z,95.00
2018-12-02T08:49:06.631Z,94.90
2018-12-02T08:51:35.045Z,94.70
2018-12-02T08:54:03.657Z,94.60
2018-12-02T08:56:32.077Z,94.50
2018-12-02T08:59:00.485Z,94.50
2018-12-02T09:01:28.902Z,94.50
2018-12-02T09:03:57.359Z,94.50
2018-12-02T09:06:25.803Z,94.50
2018-12-02T09:08:54.318Z,94.30
2018-12-02T09:11:22.828Z,94.40
2018-12-02T09:13:51.370Z,94.40
2018-12-02T09:16:20.558Z,94.20
2018-12-02T09:18:49.056Z,94.30
2018-12-02T09:21:17.472Z,94.00
2018-12-02T09:23:47.521Z,93.90
2018-12-02T09:26:14.436Z,94.00
2018-12-02T09:28:42.917Z,93.50
2018-12-02T09:31:11.400Z,93.70
2018-12-02T09:33:39.851Z,93.80
2018-12-02T09:36:08.268Z,93.50
2018-12-02T09:38:36.695Z,93.10
2018-12-02T09:41:05.724Z,93.10
2018-12-02T09:43:34.289Z,92.50
2018-12-02T09:46:02.732Z,92.50
2018-12-02T09:48:31.271Z,92.20
2018-12-02T09:50:59.839Z,91.60
2018-12-02T09:53:28.303Z,91.10
2018-12-02T09:55:56.760Z,91.30
2018-12-02T09:58:27.527Z,90.70
2018-12-02T10:00:59.318Z,90.40
2018-12-02T10:03:27.764Z,90.20
2018-12-02T10:05:56.247Z,90.30
2018-12-02T10:08:24.700Z,90.60
2018-12-02T10:10:53.392Z,90.40
2018-12-02T10:13:22.977Z,90.20
2018-12-02T10:15:51.429Z,89.20
2018-12-02T10:18:19.874Z,88.50
2018-12-02T10:20:48.307Z,88.10
2018-12-02T10:23:16.755Z,88.40
2018-12-02T10:25:45.177Z,88.60
2018-12-02T10:28:13.591Z,89.50
2018-12-02T10:30:42.377Z,90.00
2018-12-02T10:33:10.989Z,90.40
2018-12-02T10:35:39.471Z,90.20
2018-12-02T10:38:08.564Z,89.60
2018-12-02T10:40:37.368Z,89.90
2018-12-02T10:43:06.399Z,90.30
2018-12-02T10:45:35.489Z,90.10
2018-12-02T10:48:04.885Z,90.50
2018-12-02T10:50:34.475Z,90.40
2018-12-02T10:53:11.855Z,90.80
2018-12-02T10:55:57.636Z,90.50
2018-12-02T10:58:30.127Z,90.40
2018-12-02T11:01:04.710Z,90.80
2018-12-02T11:03:33.161Z,90.30
2018-12-02T11:06:01.739Z,90.40
2018-12-02T11:08:30.227Z,90.70
2018-12-02T11:10:58.656Z,90.20
2018-12-02T11:13:27.179Z,90.60
2018-12-02T11:15:55.645Z,90.70
2018-12-02T11:18:24.077Z,90.80
2018-12-02T11:20:52.540Z,91.10
2018-12-02T11:23:21.021Z,91.00
2018-12-02T11:25:49.616Z,91.10
2018-12-02T11:28:18.048Z,91.50
2018-12-02T11:30:46.454Z,91.40
2018-12-02T11:33:14.874Z,91.50
2018-12-02T11:35:43.308Z,91.30
2018-12-02T11:38:11.731Z,91.50
2018-12-02T11:40:40.960Z,91.30
2018-12-02T11:43:09.933Z,91.20
2018-12-02T11:45:38.400Z,91.30
2018-12-02T11:48:08.624Z,91.60
2018-12-02T11:50:37.525Z,91.10
2018-12-02T11:53:06.627Z,91.00
2018-12-02T11:55:35.064Z,91.20
2018-12-02T11:58:03.497Z,90.90
2018-12-02T12:00:33.170Z,90.90
2018-12-02T12:03:01.616Z,90.70
2018-12-02T12:05:30.225Z,90.60
2018-12-02T12:08:01.941Z,90.50
2018-12-02T12:10:31.419Z,90.80
2018-12-02T12:13:01.048Z,90.60
2018-12-02T12:15:30.504Z,90.10
2018-12-02T12:17:59.598Z,89.40
2018-12-02T12:20:32.285Z,88.50
2018-12-02T12:23:00.712Z,88.70
2018-12-02T12:25:29.233Z,88.20
2018-12-02T12:27:58.361Z,87.70
2018-12-02T12:30:30.252Z,88.90
2018-12-02T12:32:58.969Z,89.00
2018-12-02T12:35:27.614Z,89.50
2018-12-02T12:37:56.088Z,90.00
2018-12-02T12:40:29.607Z,90.00
2018-12-02T12:43:32.064Z,90.00
2018-12-02T12:46:01.548Z,90.20
2018-12-02T12:48:29.969Z,90.30
2018-12-02T12:51:00.777Z,90.20
2018-12-02T12:53:29.203Z,90.20
2018-12-02T12:55:57.838Z,90.30
2018-12-02T12:58:26.364Z,89.90
2018-12-02T13:00:54.814Z,90.00
2018-12-02T13:03:23.369Z,90.30
2018-12-02T13:05:51.852Z,90.50
2018-12-02T13:08:20.270Z,91.00
2018-12-02T13:10:49.026Z,91.50
2018-12-02T13:13:17.525Z,91.70
2018-12-02T13:15:46.216Z,92.10
2018-12-02T13:18:14.741Z,92.30
2018-12-02T13:20:53.510Z,92.40
2018-12-02T13:23:22.126Z,92.20
2018-12-02T13:25:50.758Z,91.90
2018-12-02T13:28:19.182Z,91.90
2018-12-02T13:30:47.763Z,91.20
2018-12-02T13:33:16.438Z,91.30
2018-12-02T13:35:44.913Z,90.80
2018-12-02T13:38:13.436Z,90.80
2018-12-02T13:40:42.876Z,91.00
2018-12-02T13:43:16.755Z,90.30
2018-12-02T13:45:45.829Z,90.50
2018-12-02T13:48:14.318Z,91.00
2018-12-02T13:50:42.859Z,91.30
2018-12-02T13:53:11.384Z,91.60
2018-12-02T13:55:39.872Z,91.80
2018-12-02T13:58:08.439Z,91.60
2018-12-02T14:00:38.581Z,92.00
2018-12-02T14:03:09.191Z,92.40
2018-12-02T14:05:41.220Z,92.30
2018-12-02T14:08:09.961Z,92.10
2018-12-02T14:10:38.398Z,92.00
2018-12-02T14:13:13.628Z,91.90
2018-12-02T14:15:52.490Z,91.60
2018-12-02T14:18:28.055Z,91.50
2018-12-02T14:20:56.507Z,91.50
2018-12-02T14:23:24.908Z,91.00
2018-12-02T14:25:54.508Z,90.90
2018-12-02T14:28:27.451Z,90.80
2018-12-02T14:30:55.861Z,90.80
2018-12-02T14:33:24.327Z,90.30
2018-12-02T14:35:52.829Z,90.50
2018-12-02T14:38:21.333Z,90.50
2018-12-02T14:40:49.748Z,90.80
2018-12-02T14:43:18.274Z,91.30
2018-12-02T14:45:46.759Z,91.50
2018-12-02T14:48:15.181Z,91.90
2018-12-02T14:50:44.618Z,92.30
2018-12-02T14:53:13.130Z,92.60
2018-12-02T14:55:41.615Z,92.20
2018-12-02T14:58:10.069Z,92.50
2018-12-02T15:00:38.514Z,92.50
2018-12-02T15:03:07.041Z,92.60
2018-12-02T15:05:35.467Z,92.50
2018-12-02T15:08:04.113Z,92.50
2018-12-02T15:10:32.576Z,92.40
2018-12-02T15:13:01.011Z,92.30
2018-12-02T15:15:29.431Z,92.10
2018-12-02T15:17:57.915Z,92.00
2018-12-02T15:20:26.324Z,91.80
2018-12-02T15:22:54.750Z,91.60
2018-12-02T15:25:23.180Z,91.50
2018-12-02T15:27:51.678Z,91.30
2018-12-02T15:30:20.182Z,91.10
2018-12-02T15:32:49.940Z,90.80
2018-12-02T15:35:18.790Z,90.90
2018-12-02T15:37:47.286Z,91.20
2018-12-02T15:40:16.800Z,90.80
2018-12-02T15:42:50.771Z,90.90
2018-12-02T15:45:20.124Z,90.80
2018-12-02T15:47:48.566Z,90.80
2018-12-02T15:50:19.215Z,90.70
2018-12-02T15:52:48.203Z,90.70
2018-12-02T15:55:22.283Z,91.30
2018-12-02T15:57:50.802Z,91.00
2018-12-02T16:00:25.018Z,90.90
2018-12-02T16:02:53.693Z,91.00
2018-12-02T16:05:22.179Z,91.00
2018-12-02T16:07:50.616Z,90.90
2018-12-02T16:10:19.121Z,91.20
2018-12-02T16:12:48.722Z,90.90
2018-12-02T16:15:23.236Z,90.90
2018-12-02T16:17:52.896Z,90.90
2018-12-02T16:20:23.965Z,91.20
2018-12-02T16:22:52.450Z,91.40
2018-12-02T16:25:20.856Z,91.60
2018-12-02T16:27:49.286Z,91.70
2018-12-02T16:30:18.735Z,92.00
2018-12-02T16:32:50.183Z,92.20
2018-12-02T16:35:19.086Z,92.20
2018-12-02T16:37:48.759Z,92.50
2018-12-02T16:40:22.090Z,92.90
2018-12-02T16:42:51.051Z,93.00
2018-12-02T16:45:19.679Z,93.10
2018-12-02T16:47:49.600Z,93.10
2018-12-02T16:50:36.273Z,93.00
2018-12-02T16:53:37.882Z,92.90
2018-12-02T16:56:09.709Z,93.00
2018-12-02T16:58:45.487Z,93.00
2018-12-02T17:01:20.465Z,93.00
2018-12-02T17:03:49.731Z,93.00
2018-12-02T17:06:18.204Z,92.90
2018-12-02T17:08:46.666Z,92.80
2018-12-02T17:11:15.143Z,92.60
2018-12-02T17:13:43.623Z,92.50
2018-12-02T17:16:12.099Z,92.40
2018-12-02T17:18:40.515Z,92.20
2018-12-02T17:21:09.161Z,92.10
2018-12-02T17:23:37.693Z,92.00
2018-12-02T17:26:06.299Z,92.00
2018-12-02T17:28:35.089Z,91.90
2018-12-02T17:31:08.392Z,91.80
2018-12-02T17:33:36.973Z,91.60
2018-12-02T17:36:05.969Z,91.60
2018-12-02T17:38:34.626Z,91.50
2018-12-02T17:41:03.640Z,91.60
2018-12-02T17:43:32.087Z,91.50
2018-12-02T17:46:00.538Z,91.40
2018-12-02T17:48:29.070Z,91.40
2018-12-02T17:50:57.567Z,91.50
2018-12-02T17:53:26.000Z,91.80
2018-12-02T17:55:54.527Z,91.80
2018-12-02T17:58:22.993Z,91.90
2018-12-02T18:00:51.503Z,92.20
2018-12-02T18:03:24.116Z,92.50
2018-12-02T18:05:52.569Z,92.50
2018-12-02T18:08:21.215Z,92.60
2018-12-02T18:10:49.645Z,92.70
2018-12-02T18:13:18.158Z,93.40
2018-12-02T18:15:46.797Z,93.00
2018-12-02T18:18:15.310Z,93.10
2018-12-02T18:20:43.765Z,93.10
2018-12-02T18:23:12.389Z,93.10
2018-12-02T18:25:40.875Z,93.00
2018-12-02T18:28:09.336Z,93.00
2018-12-02T18:30:37.753Z,93.00
2018-12-02T18:33:06.412Z,93.10
2018-12-02T18:35:52.442Z,93.10
2018-12-02T18:38:22.287Z,93.10
2018-12-02T18:40:54.968Z,93.20
2018-12-02T18:43:23.458Z,93.20
2018-12-02T18:45:52.123Z,93.30
2018-12-02T18:48:20.668Z,93.40
2018-12-02T18:50:49.122Z,93.50
2018-12-02T18:53:17.567Z,93.60
2018-12-02T18:55:45.969Z,93.70
2018-12-02T18:58:14.438Z,93.80
2018-12-02T19:00:46.166Z,93.80
2018-12-02T19:03:15.609Z,93.80
2018-12-02T19:05:44.097Z,93.80
2018-12-02T19:08:12.782Z,93.80
2018-12-02T19:10:41.531Z,93.70
2018-12-02T19:13:09.991Z,93.70
2018-12-02T19:15:38.436Z,93.70
2018-12-02T19:18:06.898Z,93.70
2018-12-02T19:20:35.385Z,93.70
2018-12-02T19:23:06.646Z,93.70
2018-12-02T19:25:35.088Z,93.70
2018-12-02T19:28:03.572Z,93.60
2018-12-02T19:30:33.090Z,93.50
2018-12-02T19:33:00.530Z,93.50
2018-12-02T19:35:32.541Z,93.50
2018-12-02T19:38:15.092Z,93.60
2018-12-02T19:40:43.547Z,93.60
2018-12-02T19:43:11.988Z,93.60
2018-12-02T19:45:40.425Z,93.50
2018-12-02T19:48:08.871Z,93.60
2018-12-02T19:50:37.317Z,93.60
2018-12-02T19:53:05.795Z,93.50
2018-12-02T19:55:34.246Z,93.40
2018-12-02T19:58:02.809Z,93.40
2018-12-02T20:00:36.681Z,93.30
2018-12-02T20:03:05.366Z,93.30
2018-12-02T20:05:33.842Z,93.30
2018-12-02T20:08:02.869Z,93.30
2018-12-02T20:10:32.135Z,93.20
2018-12-02T20:13:02.735Z,93.20
2018-12-02T20:15:31.179Z,93.10
2018-12-02T20:17:59.643Z,93.00
2018-12-02T20:20:33.734Z,93.00
2018-12-02T20:23:02.165Z,93.10
2018-12-02T20:25:30.675Z,93.10
2018-12-02T20:28:00.992Z,93.20
2018-12-02T20:30:31.064Z,93.20
2018-12-02T20:32:59.715Z,93.30
2018-12-02T20:35:28.141Z,93.30
2018-12-02T20:37:56.620Z,93.40
2018-12-02T20:40:25.764Z,93.50
2018-12-02T20:42:54.250Z,93.50
2018-12-02T20:45:22.687Z,93.70
2018-12-02T20:47:51.185Z,93.80
2018-12-02T20:50:19.702Z,93.80
2018-12-02T20:52:48.934Z,93.80
2018-12-02T20:55:24.015Z,93.80
2018-12-02T20:57:54.275Z,93.80
2018-12-02T21:00:22.788Z,93.90
2018-12-02T21:03:00.997Z,93.30
2018-12-02T21:05:36.312Z,93.30
2018-12-02T21:08:05.163Z,93.10
2018-12-02T21:10:33.688Z,92.90
2018-12-02T21:13:02.194Z,92.90
2018-12-02T21:15:30.680Z,92.50
2018-12-02T21:18:01.059Z,92.60
2018-12-02T21:20:29.603Z,92.50
2018-12-02T21:22:58.103Z,92.20
2018-12-02T21:25:27.010Z,92.20
2018-12-02T21:27:55.603Z,92.10
2018-12-02T21:30:26.426Z,92.00
2018-12-02T21:32:55.009Z,91.80
2018-12-02T21:35:23.601Z,91.50
2018-12-02T21:37:53.722Z,91.80
2018-12-02T21:40:22.344Z,92.20
2018-12-02T21:42:50.893Z,91.90
2018-12-02T21:45:19.529Z,91.80
2018-12-02T21:47:53.142Z,91.80
2018-12-02T21:50:24.133Z,91.70
2018-12-02T21:52:52.724Z,91.70
2018-12-02T21:55:21.247Z,91.80
2018-12-02T21:57:49.867Z,91.60
2018-12-02T22:00:23.911Z,91.50
2018-12-02T22:02:53.209Z,91.80
2018-12-02T22:05:21.703Z,91.70
2018-12-02T22:07:51.070Z,91.40
2018-12-02T22:10:21.008Z,91.80
2018-12-02T22:12:49.557Z,91.80
2018-12-02T22:15:18.008Z,91.90
2018-12-02T22:17:46.469Z,92.00
2018-12-02T22:20:16.234Z,91.90
2018-12-02T22:22:44.677Z,91.90
2018-12-02T22:25:15.124Z,92.00
2018-12-02T22:27:45.886Z,92.10
2018-12-02T22:30:15.501Z,92.10
2018-12-02T22:32:44.013Z,91.90
2018-12-02T22:35:13.457Z,92.30
2018-12-02T22:37:42.388Z,91.80
2018-12-02T22:40:12.160Z,91.90
2018-12-02T22:42:40.645Z,92.00
2018-12-02T22:45:12.403Z,92.10
2018-12-02T22:47:40.873Z,92.00
2018-12-02T22:50:11.876Z,91.90
2018-12-02T22:52:40.380Z,91.90
2018-12-02T22:55:10.202Z,91.90
2018-12-02T22:57:38.912Z,92.00
2018-12-02T23:00:17.164Z,92.10
2018-12-02T23:02:52.511Z,92.60
2018-12-02T23:05:20.946Z,92.30
2018-12-02T23:07:49.389Z,92.40
2018-12-02T23:10:18.000Z,92.50
2018-12-02T23:12:46.444Z,92.50
2018-12-02T23:15:14.957Z,92.50
2018-12-02T23:17:43.409Z,92.60
2018-12-02T23:20:12.374Z,92.60
2018-12-02T23:22:40.908Z,92.60
2018-12-02T23:25:12.565Z,92.60
2018-12-02T23:27:41.100Z,92.50
2018-12-02T23:30:14.822Z,92.40
2018-12-02T23:32:43.280Z,92.40
2018-12-02T23:35:11.792Z,92.40
2018-12-02T23:37:40.222Z,92.40
2018-12-02T23:40:19.645Z,92.60
2018-12-02T23:42:48.225Z,93.10
2018-12-02T23:45:17.317Z,93.40
2018-12-02T23:47:45.867Z,93.60
2018-12-02T23:50:15.610Z,93.70
2018-12-02T23:52:44.172Z,93.90
2018-12-02T23:55:13.883Z,93.90
2018-12-02T23:57:42.492Z,93.90
